createdAt,value
2019-01-21T00:01:52.008Z,-3.00
2019-01-21T00:04:22.090Z,-3.10
2019-01-21T00:06:52.234Z,-3.20
2019-01-21T00:09:22.356Z,-3.20
2019-01-21T00:11:52.459Z,-3.20
2019-01-21T00:14:22.604Z,-3.20
2019-01-21T00:16:52.730Z,-3.20
2019-01-21T00:19:22.866Z,-3.20
2019-01-21T00:21:52.939Z,-3.20
2019-01-21T00:24:24.038Z,-3.20
2019-01-21T00:26:53.388Z,-3.30
2019-01-21T00:29:23.484Z,-3.30
2019-01-21T00:31:53.490Z,-3.30
2019-01-21T00:34:23.670Z,-3.40
2019-01-21T00:36:53.737Z,-3.40
2019-01-21T00:39:23.886Z,-3.40
2019-01-21T00:41:56.395Z,-3.40
2019-01-21T00:44:25.051Z,-3.40
2019-01-21T00:46:54.466Z,-3.40
2019-01-21T00:49:24.425Z,-3.40
2019-01-21T00:51:54.443Z,-3.50
2019-01-21T00:54:24.595Z,-3.50
2019-01-21T00:56:54.691Z,-3.50
2019-01-21T00:59:24.766Z,-3.60
2019-01-21T01:01:54.866Z,-3.70
2019-01-21T01:04:24.985Z,-3.70
2019-01-21T01:06:55.133Z,-3.80
2019-01-21T01:09:25.280Z,-3.80
2019-01-21T01:11:55.362Z,-3.80
2019-01-21T01:14:25.826Z,-3.80
2019-01-21T01:16:55.646Z,-3.80
2019-01-21T01:19:25.762Z,-3.80
2019-01-21T01:21:55.802Z,-3.80
2019-01-21T01:24:25.964Z,-3.90
2019-01-21T01:26:58.908Z,-3.90
2019-01-21T01:29:28.302Z,-3.90
2019-01-21T01:31:57.715Z,-4.00
2019-01-21T01:34:27.100Z,-4.00
2019-01-21T01:36:57.595Z,-4.00
2019-01-21T01:39:26.984Z,-4.00
2019-01-21T01:41:56.848Z,-4.00
2019-01-21T01:44:26.995Z,-4.10
2019-01-21T01:46:56.423Z,-4.10
2019-01-21T01:49:25.874Z,-4.00
2019-01-21T01:51:55.327Z,-4.00
2019-01-21T01:54:24.860Z,-4.10
2019-01-21T01:56:54.552Z,-4.10
2019-01-21T01:59:23.951Z,-4.10
2019-01-21T02:01:53.380Z,-4.10
2019-01-21T02:04:22.822Z,-4.10
2019-01-21T02:06:52.269Z,-4.10
2019-01-21T02:09:22.002Z,-4.10
2019-01-21T02:11:51.422Z,-4.10
2019-01-21T02:14:20.811Z,-4.10
2019-01-21T02:16:50.256Z,-4.10
2019-01-21T02:19:22.119Z,-4.10
2019-01-21T02:21:52.806Z,-4.10
2019-01-21T02:24:23.839Z,-4.10
2019-01-21T02:26:56.334Z,-4.10
2019-01-21T02:29:34.677Z,-4.20
2019-01-21T02:32:22.762Z,-4.20
2019-01-21T02:35:00.841Z,-4.10
2019-01-21T02:37:33.313Z,-4.10
2019-01-21T02:40:15.065Z,-4.20
2019-01-21T02:43:02.888Z,-4.20
2019-01-21T02:45:56.515Z,-4.20
2019-01-21T02:48:31.935Z,-4.20
2019-01-21T02:51:08.861Z,-4.20
2019-01-21T02:53:46.738Z,-4.20
2019-01-21T02:56:24.787Z,-4.20
2019-01-21T02:59:02.719Z,-4.20
2019-01-21T03:01:37.956Z,-4.20
2019-01-21T03:04:30.126Z,-4.20
2019-01-21T03:07:11.305Z,-4.20
2019-01-21T03:09:49.650Z,-4.20
2019-01-21T03:12:22.288Z,-4.30
2019-01-21T03:15:21.680Z,-4.30
2019-01-21T03:18:26.169Z,-4.30
2019-01-21T03:21:18.378Z,-4.30
2019-01-21T03:24:02.996Z,-4.30
2019-01-21T03:26:35.535Z,-4.30
2019-01-21T03:29:10.530Z,-4.30
2019-01-21T03:31:50.430Z,-4.40
2019-01-21T03:34:44.451Z,-4.40
2019-01-21T03:37:35.094Z,-4.40
2019-01-21T03:40:22.328Z,-4.40
2019-01-21T03:43:02.988Z,-4.40
2019-01-21T03:45:47.835Z,-4.40
2019-01-21T03:48:21.451Z,-4.40
2019-01-21T03:51:03.154Z,-4.40
2019-01-21T03:53:51.802Z,-4.40
2019-01-21T03:56:24.349Z,-4.40
2019-01-21T03:59:02.552Z,-4.40
2019-01-21T04:01:35.484Z,-4.40
2019-01-21T04:04:22.814Z,-4.40
2019-01-21T04:06:55.734Z,-4.40
2019-01-21T04:09:34.267Z,-4.40
2019-01-21T04:12:09.994Z,-4.40
2019-01-21T04:14:57.786Z,-4.40
2019-01-21T04:17:57.375Z,-4.40
2019-01-21T04:20:46.446Z,-4.40
2019-01-21T04:23:33.868Z,-4.40
2019-01-21T04:26:14.918Z,-4.40
2019-01-21T04:28:50.470Z,-4.40
2019-01-21T04:31:28.630Z,-4.40
2019-01-21T04:34:07.018Z,-4.40
2019-01-21T04:36:56.855Z,-4.40
2019-01-21T04:39:43.759Z,-4.50
2019-01-21T04:42:33.254Z,-4.40
2019-01-21T04:45:14.964Z,-4.50
2019-01-21T04:47:47.569Z,-4.50
2019-01-21T04:50:46.042Z,-4.40
2019-01-21T04:53:18.607Z,-4.40
2019-01-21T04:56:05.764Z,-4.40
2019-01-21T04:58:40.939Z,-4.40
2019-01-21T05:01:30.202Z,-4.40
2019-01-21T05:04:17.836Z,-4.40
2019-01-21T05:07:05.820Z,-4.40
2019-01-21T05:09:47.694Z,-4.50
2019-01-21T05:12:35.128Z,-4.40
2019-01-21T05:15:30.273Z,-4.40
2019-01-21T05:18:21.700Z,-4.40
2019-01-21T05:21:13.668Z,-4.40
2019-01-21T05:24:02.908Z,-4.40
2019-01-21T05:26:44.080Z,-4.40
2019-01-21T05:29:32.998Z,-4.40
2019-01-21T05:32:23.346Z,-4.40
2019-01-21T05:35:15.188Z,-4.50
2019-01-21T05:37:50.731Z,-4.50
2019-01-21T05:40:25.920Z,-4.50
2019-01-21T05:43:23.943Z,-4.50
2019-01-21T05:46:14.814Z,-4.50
2019-01-21T05:49:02.210Z,-4.50
2019-01-21T05:51:46.722Z,-4.50
2019-01-21T05:54:28.678Z,-4.50
2019-01-21T05:57:10.486Z,-4.40
2019-01-21T05:59:51.799Z,-4.40
2019-01-21T06:02:42.405Z,-4.30
2019-01-21T06:05:37.394Z,-4.30
2019-01-21T06:08:15.795Z,-4.20
2019-01-21T06:10:54.113Z,-4.10
2019-01-21T06:13:38.324Z,-4.00
2019-01-21T06:16:31.920Z,-3.90
2019-01-21T06:19:06.932Z,-3.80
2019-01-21T06:21:42.354Z,-3.70
2019-01-21T06:24:18.371Z,-3.60
2019-01-21T06:27:05.682Z,-3.50
2019-01-21T06:29:43.855Z,-3.50
2019-01-21T06:32:18.958Z,-3.50
2019-01-21T06:35:12.406Z,-3.30
2019-01-21T06:37:50.701Z,-3.20
2019-01-21T06:40:37.851Z,-3.10
2019-01-21T06:43:27.761Z,-3.10
2019-01-21T06:46:00.313Z,-3.00
2019-01-21T06:49:06.224Z,-3.00
2019-01-21T06:52:10.459Z,-2.90
2019-01-21T06:55:02.362Z,-2.90
2019-01-21T06:58:00.603Z,-2.90
2019-01-21T07:00:57.216Z,-2.80
2019-01-21T07:03:44.106Z,-2.80
2019-01-21T07:06:39.507Z,-2.70
2019-01-21T07:09:17.459Z,-2.70
2019-01-21T07:12:06.431Z,-2.70
2019-01-21T07:14:56.941Z,-2.70
2019-01-21T07:17:49.369Z,-2.70
2019-01-21T07:20:40.046Z,-2.70
2019-01-21T07:23:35.527Z,-2.60
2019-01-21T07:26:20.010Z,-2.60
2019-01-21T07:28:58.220Z,-2.60
2019-01-21T07:31:38.782Z,-2.60
2019-01-21T07:34:35.147Z,-2.60
2019-01-21T07:37:22.804Z,-2.60
2019-01-21T07:40:01.191Z,-2.70
2019-01-21T07:42:49.751Z,-2.70
2019-01-21T07:45:41.312Z,-2.60
2019-01-21T07:48:23.908Z,-2.60
2019-01-21T07:50:56.356Z,-2.60
2019-01-21T07:53:46.996Z,-2.60
2019-01-21T07:56:52.174Z,-2.60
2019-01-21T07:59:44.051Z,-2.50
2019-01-21T08:02:31.178Z,-2.60
2019-01-21T08:05:15.447Z,-2.60
2019-01-21T08:07:54.638Z,-2.70
2019-01-21T08:10:46.312Z,-2.70
2019-01-21T08:13:33.828Z,-2.80
2019-01-21T08:16:21.371Z,-2.80
2019-01-21T08:19:10.262Z,-2.80
2019-01-21T08:22:02.495Z,-2.90
2019-01-21T08:24:52.949Z,-3.10
2019-01-21T08:27:36.989Z,-3.10
2019-01-21T08:30:30.975Z,-3.10
2019-01-21T08:33:22.909Z,-3.10
2019-01-21T08:36:11.771Z,-2.90
2019-01-21T08:38:56.088Z,-2.60
2019-01-21T08:41:34.192Z,-2.30
2019-01-21T08:44:28.942Z,-2.20
2019-01-21T08:47:18.091Z,-2.00
2019-01-21T08:49:56.284Z,-1.80
2019-01-21T08:52:34.670Z,-1.70
2019-01-21T08:55:31.691Z,-1.60
2019-01-21T08:58:12.823Z,-1.50
2019-01-21T09:01:00.515Z,-1.30
2019-01-21T09:03:53.730Z,-1.30
2019-01-21T09:06:44.107Z,-1.10
2019-01-21T09:09:41.902Z,-1.00
2019-01-21T09:12:20.221Z,-0.90
2019-01-21T09:15:19.363Z,-0.80
2019-01-21T09:18:09.990Z,-0.70
2019-01-21T09:20:54.082Z,-0.80
2019-01-21T09:23:44.056Z,-0.80
2019-01-21T09:26:25.161Z,-0.80
2019-01-21T09:29:21.789Z,-0.70
2019-01-21T09:32:03.555Z,-0.70
2019-01-21T09:34:38.615Z,-0.60
2019-01-21T09:37:23.060Z,-0.60
2019-01-21T09:40:13.639Z,-0.50
2019-01-21T09:43:04.167Z,-0.60
2019-01-21T09:45:53.388Z,-0.50
2019-01-21T09:48:21.753Z,-0.40
2019-01-21T09:50:51.845Z,-0.30
2019-01-21T09:53:21.619Z,-0.20
2019-01-21T09:55:52.800Z,-0.10
2019-01-21T09:58:24.360Z,0.00
2019-01-21T10:00:54.137Z,0.10
2019-01-21T10:03:24.131Z,0.10
2019-01-21T10:05:56.544Z,0.20
2019-01-21T10:08:31.797Z,0.20
2019-01-21T10:11:26.745Z,0.20
2019-01-21T10:14:12.149Z,0.30
2019-01-21T10:16:50.843Z,0.50
2019-01-21T10:19:32.421Z,0.60
2019-01-21T10:22:20.167Z,0.70
2019-01-21T10:25:10.455Z,0.80
2019-01-21T10:27:45.655Z,0.90
2019-01-21T10:30:34.566Z,1.00
2019-01-21T10:33:29.651Z,1.10
2019-01-21T10:36:11.167Z,1.20
2019-01-21T10:38:49.639Z,1.10
2019-01-21T10:41:34.419Z,1.10
2019-01-21T10:44:12.425Z,1.20
2019-01-21T10:46:56.510Z,1.10
2019-01-21T10:49:44.141Z,1.20
2019-01-21T10:52:19.141Z,1.20
2019-01-21T10:55:08.179Z,1.40
2019-01-21T10:57:43.592Z,1.60
2019-01-21T11:00:32.580Z,1.60
2019-01-21T11:03:10.651Z,1.60
2019-01-21T11:05:45.877Z,1.60
2019-01-21T11:08:45.662Z,1.60
2019-01-21T11:11:30.004Z,1.70
2019-01-21T11:14:31.641Z,1.60
2019-01-21T11:17:09.959Z,1.50
2019-01-21T11:19:51.342Z,1.70
2019-01-21T11:22:26.595Z,1.70
2019-01-21T11:25:16.464Z,1.80
2019-01-21T11:27:48.878Z,1.80
2019-01-21T11:30:36.525Z,1.70
2019-01-21T11:33:23.819Z,1.90
2019-01-21T11:36:21.735Z,2.00
2019-01-21T11:39:06.180Z,2.10
2019-01-21T11:41:38.731Z,2.20
2019-01-21T11:44:13.896Z,2.20
2019-01-21T11:46:46.460Z,2.10
2019-01-21T11:49:35.611Z,2.00
2019-01-21T11:52:22.800Z,1.90
2019-01-21T11:55:03.907Z,1.70
2019-01-21T11:57:51.202Z,1.70
2019-01-21T12:00:46.508Z,1.90
2019-01-21T12:03:23.576Z,2.10
2019-01-21T12:05:55.480Z,2.30
2019-01-21T12:08:44.127Z,2.50
2019-01-21T12:11:16.618Z,2.60
2019-01-21T12:14:11.842Z,2.80
2019-01-21T12:17:10.832Z,2.90
2019-01-21T12:19:51.913Z,3.10
2019-01-21T12:22:27.466Z,2.80
2019-01-21T12:24:59.925Z,2.90
2019-01-21T12:27:38.529Z,3.00
2019-01-21T12:30:16.287Z,3.10
2019-01-21T12:33:00.951Z,3.20
2019-01-21T12:35:36.109Z,3.20
2019-01-21T12:38:28.223Z,3.30
2019-01-21T12:41:06.524Z,3.40
2019-01-21T12:43:59.858Z,3.50
2019-01-21T12:46:35.160Z,3.40
2019-01-21T12:49:25.690Z,3.40
2019-01-21T12:52:03.924Z,3.20
2019-01-21T12:54:36.421Z,3.30
2019-01-21T12:57:25.295Z,3.40
2019-01-21T13:00:12.638Z,3.40
2019-01-21T13:02:57.030Z,3.40
2019-01-21T13:05:44.595Z,3.30
2019-01-21T13:08:31.698Z,3.10
2019-01-21T13:11:07.781Z,3.00
2019-01-21T13:14:06.211Z,2.80
2019-01-21T13:16:35.841Z,2.70
2019-01-21T13:19:32.005Z,2.40
2019-01-21T13:22:16.314Z,2.30
2019-01-21T13:25:16.164Z,2.20
2019-01-21T13:27:57.592Z,2.10
2019-01-21T13:30:39.128Z,2.20
2019-01-21T13:33:32.444Z,2.20
2019-01-21T13:36:14.304Z,2.20
2019-01-21T13:38:55.449Z,2.20
2019-01-21T13:41:39.782Z,2.30
2019-01-21T13:44:20.869Z,2.30
2019-01-21T13:47:16.161Z,2.20
2019-01-21T13:50:00.255Z,2.20
2019-01-21T13:52:50.885Z,2.20
2019-01-21T13:55:32.343Z,2.20
2019-01-21T13:58:36.294Z,2.30
2019-01-21T14:01:08.783Z,2.30
2019-01-21T14:03:59.257Z,2.30
2019-01-21T14:06:34.389Z,2.30
2019-01-21T14:09:26.461Z,2.10
2019-01-21T14:12:11.230Z,2.00
2019-01-21T14:14:49.603Z,1.90
2019-01-21T14:17:49.216Z,1.80
2019-01-21T14:20:36.520Z,1.80
2019-01-21T14:23:11.553Z,1.80
2019-01-21T14:26:01.847Z,1.70
2019-01-21T14:28:52.524Z,1.60
2019-01-21T14:31:36.857Z,1.50
2019-01-21T14:34:18.462Z,1.50
2019-01-21T14:36:59.189Z,1.50
2019-01-21T14:39:48.094Z,1.60
2019-01-21T14:42:32.440Z,1.70
2019-01-21T14:45:19.864Z,1.70
2019-01-21T14:47:55.259Z,1.60
2019-01-21T14:50:50.267Z,1.50
2019-01-21T14:53:24.197Z,1.40
2019-01-21T14:56:08.435Z,1.20
2019-01-21T14:58:40.971Z,1.20
2019-01-21T15:01:16.448Z,1.00
2019-01-21T15:03:57.438Z,0.90
2019-01-21T15:06:38.834Z,0.90
2019-01-21T15:09:19.614Z,0.90
2019-01-21T15:12:09.563Z,0.90
2019-01-21T15:14:44.749Z,0.80
2019-01-21T15:17:21.504Z,0.80
2019-01-21T15:19:51.733Z,0.70
2019-01-21T15:22:29.949Z,0.70
2019-01-21T15:25:09.079Z,0.70
2019-01-21T15:27:57.057Z,0.60
2019-01-21T15:30:29.594Z,0.50
2019-01-21T15:33:17.444Z,0.40
2019-01-21T15:36:01.770Z,0.40
2019-01-21T15:38:37.047Z,0.40
2019-01-21T15:41:27.034Z,0.40
2019-01-21T15:43:59.577Z,0.40
2019-01-21T15:46:48.677Z,0.40
2019-01-21T15:49:27.111Z,0.40
2019-01-21T15:52:05.795Z,0.40
2019-01-21T15:54:56.448Z,0.40
2019-01-21T15:57:45.866Z,0.50
2019-01-21T16:00:39.407Z,0.60
2019-01-21T16:03:14.846Z,0.60
2019-01-21T16:05:55.748Z,0.80
2019-01-21T16:08:28.258Z,0.90
2019-01-21T16:11:12.655Z,1.00
2019-01-21T16:13:45.266Z,1.20
2019-01-21T16:16:29.911Z,1.30
2019-01-21T16:19:02.558Z,1.50
2019-01-21T16:21:59.164Z,1.60
2019-01-21T16:24:37.219Z,1.70
2019-01-21T16:27:27.742Z,1.70
2019-01-21T16:30:00.264Z,1.80
2019-01-21T16:32:32.300Z,2.00
2019-01-21T16:35:28.627Z,2.10
2019-01-21T16:38:01.212Z,2.20
2019-01-21T16:40:39.573Z,2.20
2019-01-21T16:43:09.108Z,2.20
2019-01-21T16:45:38.466Z,2.30
2019-01-21T16:48:08.012Z,2.30
2019-01-21T16:50:38.537Z,2.30
2019-01-21T16:53:08.003Z,2.30
2019-01-21T16:55:37.467Z,2.50
2019-01-21T16:58:06.993Z,2.60
2019-01-21T17:00:36.432Z,2.60
2019-01-21T17:03:06.049Z,2.60
2019-01-21T17:05:35.500Z,2.80
2019-01-21T17:08:05.090Z,2.90
2019-01-21T17:10:39.114Z,2.80
2019-01-21T17:13:05.630Z,2.90
2019-01-21T17:15:35.091Z,2.90
2019-01-21T17:18:07.222Z,3.00
2019-01-21T17:20:36.681Z,3.00
2019-01-21T17:23:06.117Z,3.00
2019-01-21T17:25:35.581Z,3.00
2019-01-21T17:28:05.090Z,3.00
2019-01-21T17:30:34.544Z,3.00
2019-01-21T17:33:04.061Z,3.00
2019-01-21T17:35:33.506Z,3.10
2019-01-21T17:38:04.246Z,3.10
2019-01-21T17:40:34.838Z,3.10
2019-01-21T17:43:04.342Z,3.00
2019-01-21T17:45:33.791Z,3.10
2019-01-21T17:48:03.329Z,3.00
2019-01-21T17:50:34.305Z,3.00
2019-01-21T17:53:03.915Z,3.00
2019-01-21T17:55:33.366Z,3.00
2019-01-21T17:58:02.798Z,3.10
2019-01-21T18:00:32.255Z,3.10
2019-01-21T18:03:01.698Z,3.00
2019-01-21T18:05:31.168Z,3.00
2019-01-21T18:08:00.622Z,3.00
2019-01-21T18:10:31.436Z,3.00
2019-01-21T18:13:00.929Z,3.00
2019-01-21T18:15:30.385Z,2.90
2019-01-21T18:17:59.831Z,3.00
2019-01-21T18:20:29.278Z,3.00
2019-01-21T18:22:58.723Z,3.00
2019-01-21T18:25:29.209Z,3.10
2019-01-21T18:27:58.664Z,3.00
2019-01-21T18:30:29.243Z,3.10
2019-01-21T18:32:58.707Z,3.10
2019-01-21T18:35:28.190Z,3.10
2019-01-21T18:37:57.647Z,3.00
2019-01-21T18:40:28.669Z,2.90
2019-01-21T18:43:00.176Z,2.70
2019-01-21T18:45:31.023Z,2.60
2019-01-21T18:48:00.477Z,2.40
2019-01-21T18:50:29.986Z,2.20
2019-01-21T18:52:59.448Z,2.00
2019-01-21T18:55:28.888Z,1.80
2019-01-21T18:57:58.333Z,1.70
2019-01-21T19:00:28.776Z,1.60
2019-01-21T19:02:59.570Z,1.60
2019-01-21T19:05:29.021Z,1.60
2019-01-21T19:08:00.888Z,1.40
2019-01-21T19:10:31.961Z,1.30
2019-01-21T19:13:01.421Z,1.30
2019-01-21T19:15:31.391Z,1.30
2019-01-21T19:18:00.946Z,1.30
2019-01-21T19:20:32.042Z,1.30
2019-01-21T19:23:01.494Z,1.30
2019-01-21T19:25:30.953Z,1.30
2019-01-21T19:28:00.408Z,1.20
2019-01-21T19:30:31.470Z,1.10
2019-01-21T19:33:02.012Z,1.00
2019-01-21T19:35:35.290Z,0.90
2019-01-21T19:38:06.161Z,0.80
2019-01-21T19:40:37.427Z,0.80
2019-01-21T19:43:06.988Z,0.70
2019-01-21T19:45:36.434Z,0.70
2019-01-21T19:48:07.360Z,0.60
2019-01-21T19:50:38.352Z,0.60
2019-01-21T19:53:07.852Z,0.60
2019-01-21T19:55:41.699Z,0.70
2019-01-21T19:58:15.354Z,0.80
2019-01-21T20:00:45.012Z,0.90
2019-01-21T20:03:14.487Z,0.90
2019-01-21T20:05:43.989Z,0.90
2019-01-21T20:08:18.336Z,0.80
2019-01-21T20:10:47.804Z,0.70
2019-01-21T20:13:18.763Z,0.70
2019-01-21T20:15:48.201Z,0.60
2019-01-21T20:18:17.718Z,0.60
2019-01-21T20:20:48.010Z,0.60
2019-01-21T20:23:17.447Z,0.60
2019-01-21T20:25:48.129Z,0.70
2019-01-21T20:28:19.295Z,0.90
2019-01-21T20:30:48.748Z,1.00
2019-01-21T20:33:20.888Z,1.10
2019-01-21T20:35:50.340Z,1.10
2019-01-21T20:38:19.789Z,1.20
2019-01-21T20:40:49.269Z,1.30
2019-01-21T20:43:21.382Z,1.30
2019-01-21T20:45:52.274Z,1.40
2019-01-21T20:48:21.715Z,1.40
2019-01-21T20:50:51.230Z,1.40
2019-01-21T20:53:28.045Z,1.50
2019-01-21T20:55:56.023Z,1.50
2019-01-21T20:58:25.489Z,1.50
2019-01-21T21:00:57.666Z,1.50
2019-01-21T21:03:34.141Z,1.60
2019-01-21T21:06:03.760Z,1.60
2019-01-21T21:08:33.300Z,1.60
2019-01-21T21:11:02.774Z,1.70
2019-01-21T21:13:32.567Z,1.70
2019-01-21T21:16:02.179Z,1.80
2019-01-21T21:18:31.637Z,1.90
2019-01-21T21:21:01.090Z,2.00
2019-01-21T21:23:33.726Z,2.00
2019-01-21T21:26:03.204Z,2.00
2019-01-21T21:28:33.493Z,2.10
2019-01-21T21:31:02.939Z,2.10
2019-01-21T21:33:32.407Z,2.20
2019-01-21T21:36:01.838Z,2.20
2019-01-21T21:38:31.288Z,2.20
2019-01-21T21:41:00.800Z,2.30
2019-01-21T21:43:30.264Z,2.30
2019-01-21T21:45:59.766Z,2.30
2019-01-21T21:48:31.826Z,2.30
2019-01-21T21:51:00.959Z,2.30
2019-01-21T21:53:30.488Z,2.20
2019-01-21T21:56:00.176Z,2.20
2019-01-21T21:58:30.379Z,2.30
2019-01-21T22:01:00.400Z,2.30
2019-01-21T22:03:30.651Z,2.30
2019-01-21T22:06:00.689Z,2.40
2019-01-21T22:08:30.840Z,2.50
2019-01-21T22:11:01.039Z,2.50
2019-01-21T22:13:31.088Z,2.50
2019-01-21T22:16:01.188Z,2.60
2019-01-21T22:18:31.281Z,2.60
2019-01-21T22:21:02.714Z,2.50
2019-01-21T22:23:32.846Z,2.60
2019-01-21T22:26:03.054Z,2.60
2019-01-21T22:28:33.118Z,2.60
2019-01-21T22:31:03.116Z,2.60
2019-01-21T22:33:34.864Z,2.70
2019-01-21T22:36:04.377Z,2.70
2019-01-21T22:38:33.798Z,2.80
2019-01-21T22:41:03.674Z,2.80
2019-01-21T22:43:33.765Z,2.80
2019-01-21T22:46:04.047Z,2.80
2019-01-21T22:48:34.021Z,2.80
2019-01-21T22:51:04.186Z,2.80
2019-01-21T22:53:34.248Z,2.80
2019-01-21T22:56:05.372Z,2.80
2019-01-21T22:58:34.821Z,2.80
2019-01-21T23:01:07.820Z,2.80
2019-01-21T23:03:37.241Z,2.90
2019-01-21T23:06:06.881Z,2.90
2019-01-21T23:08:36.319Z,2.90
2019-01-21T23:11:05.756Z,2.90
2019-01-21T23:13:35.188Z,3.00
2019-01-21T23:16:05.560Z,3.10
2019-01-21T23:18:35.458Z,3.10
2019-01-21T23:21:05.642Z,3.10
2019-01-21T23:23:35.744Z,3.10
2019-01-21T23:26:05.884Z,3.10
2019-01-21T23:28:36.066Z,3.10
2019-01-21T23:31:06.918Z,3.00
2019-01-21T23:33:36.344Z,3.00
2019-01-21T23:36:06.293Z,3.00
2019-01-21T23:38:36.416Z,3.00
2019-01-21T23:41:06.554Z,3.00
2019-01-21T23:43:36.654Z,3.00
2019-01-21T23:46:06.824Z,3.00
2019-01-21T23:48:36.834Z,3.00
2019-01-21T23:51:07.095Z,3.10
2019-01-21T23:53:37.095Z,3.10
2019-01-21T23:56:07.328Z,3.10
2019-01-21T23:58:37.327Z,3.10
